createdAt,value
2018-07-01T00:00:26.270Z,99133.78
2018-07-01T00:02:54.514Z,99133.70
2018-07-01T00:05:22.839Z,99135.67
2018-07-01T00:07:51.102Z,99137.98
2018-07-01T00:10:19.385Z,99134.72
2018-07-01T00:12:47.638Z,99134.73
2018-07-01T00:15:15.918Z,99136.23
2018-07-01T00:17:44.199Z,99141.36
2018-07-01T00:20:12.526Z,99143.14
2018-07-01T00:22:40.789Z,99145.50
2018-07-01T00:25:09.110Z,99154.23
2018-07-01T00:27:37.346Z,99149.77
2018-07-01T00:30:06.259Z,99146.55
2018-07-01T00:32:34.552Z,99152.16
2018-07-01T00:35:02.915Z,99157.91
2018-07-01T00:37:31.246Z,99157.95
2018-07-01T00:39:59.576Z,99161.31
2018-07-01T00:42:27.830Z,99160.08
2018-07-01T00:44:56.170Z,99157.80
2018-07-01T00:47:24.474Z,99164.83
2018-07-01T00:49:52.755Z,99147.63
2018-07-01T00:52:21.038Z,99154.20
2018-07-01T00:54:49.310Z,99162.07
2018-07-01T00:57:17.598Z,99155.92
2018-07-01T00:59:45.842Z,99157.77
2018-07-01T01:02:14.126Z,99155.53
2018-07-01T01:04:42.403Z,99152.25
2018-07-01T01:07:10.706Z,99160.84
2018-07-01T01:09:38.953Z,99156.88
2018-07-01T01:12:07.221Z,99154.59
2018-07-01T01:14:35.479Z,99152.22
2018-07-01T01:17:03.869Z,99148.97
2018-07-01T01:19:32.174Z,99148.28
2018-07-01T01:22:00.471Z,99149.09
2018-07-01T01:24:28.737Z,99150.02
2018-07-01T01:26:57.019Z,99149.30
2018-07-01T01:29:25.398Z,99156.22
2018-07-01T01:31:53.709Z,99144.08
2018-07-01T01:34:22.014Z,99147.31
2018-07-01T01:36:50.299Z,99155.05
2018-07-01T01:39:25.426Z,99155.47
2018-07-01T01:41:58.278Z,99153.03
2018-07-01T01:44:35.052Z,99155.83
2018-07-01T01:47:09.766Z,99153.52
2018-07-01T01:49:43.305Z,99148.55
2018-07-01T01:52:18.798Z,99153.20
2018-07-01T01:55:21.291Z,99156.86
2018-07-01T01:58:08.930Z,99161.27
2018-07-01T02:00:41.602Z,99152.77
2018-07-01T02:03:21.023Z,99156.76
2018-07-01T02:05:55.745Z,99159.52
2018-07-01T02:09:01.266Z,99164.93
2018-07-01T02:11:30.903Z,99162.31
2018-07-01T02:14:03.185Z,99168.25
2018-07-01T02:16:35.243Z,99173.73
2018-07-01T02:19:03.546Z,99163.20
2018-07-01T02:21:31.866Z,99169.72
2018-07-01T02:24:03.193Z,99170.95
2018-07-01T02:26:32.506Z,99170.22
2018-07-01T02:29:01.171Z,99167.08
2018-07-01T02:31:29.462Z,99177.50
2018-07-01T02:33:57.712Z,99168.17
2018-07-01T02:36:26.032Z,99163.06
2018-07-01T02:38:54.264Z,99168.86
2018-07-01T02:41:22.569Z,99167.91
2018-07-01T02:43:50.879Z,99171.91
2018-07-01T02:46:19.217Z,99173.14
2018-07-01T02:48:47.461Z,99168.46
2018-07-01T02:51:15.775Z,99161.25
2018-07-01T02:53:44.062Z,99165.02
2018-07-01T02:56:12.350Z,99172.13
2018-07-01T02:58:40.629Z,99177.67
2018-07-01T03:01:08.930Z,99179.03
2018-07-01T03:03:37.267Z,99179.19
2018-07-01T03:06:05.555Z,99182.70
2018-07-01T03:08:33.850Z,99181.28
2018-07-01T03:11:02.155Z,99189.57
2018-07-01T03:13:30.478Z,99193.69
2018-07-01T03:15:58.740Z,99195.16
2018-07-01T03:18:27.930Z,99190.56
2018-07-01T03:20:56.195Z,99195.87
2018-07-01T03:23:24.615Z,99190.32
2018-07-01T03:25:52.850Z,99192.20
2018-07-01T03:28:21.116Z,99188.44
2018-07-01T03:30:49.362Z,99196.84
2018-07-01T03:33:17.639Z,99193.34
2018-07-01T03:35:45.913Z,99193.81
2018-07-01T03:38:14.196Z,99194.73
2018-07-01T03:40:42.442Z,99193.80
2018-07-01T03:43:10.771Z,99189.20
2018-07-01T03:45:39.490Z,99201.42
2018-07-01T03:48:07.839Z,99198.66
2018-07-01T03:50:36.128Z,99211.14
2018-07-01T03:53:04.554Z,99212.03
2018-07-01T03:55:32.794Z,99213.86
2018-07-01T03:58:01.083Z,99213.05
2018-07-01T04:00:29.436Z,99223.33
2018-07-01T04:02:57.711Z,99221.73
2018-07-01T04:05:26.002Z,99220.58
2018-07-01T04:07:54.275Z,99216.80
2018-07-01T04:10:22.578Z,99215.27
2018-07-01T04:12:50.850Z,99220.95
2018-07-01T04:15:19.162Z,99214.58
2018-07-01T04:17:47.413Z,99211.46
2018-07-01T04:20:15.687Z,99214.73
2018-07-01T04:22:43.931Z,99222.27
2018-07-01T04:25:12.246Z,99212.57
2018-07-01T04:27:40.498Z,99216.58
2018-07-01T04:30:08.806Z,99219.72
2018-07-01T04:32:37.065Z,99225.66
2018-07-01T04:35:05.350Z,99226.76
2018-07-01T04:37:33.605Z,99223.97
2018-07-01T04:40:01.915Z,99224.64
2018-07-01T04:42:30.174Z,99226.66
2018-07-01T04:44:58.450Z,99223.81
2018-07-01T04:47:26.743Z,99226.27
2018-07-01T04:49:55.132Z,99225.36
2018-07-01T04:52:23.426Z,99229.39
2018-07-01T04:54:51.738Z,99231.41
2018-07-01T04:57:20.499Z,99231.47
2018-07-01T04:59:48.772Z,99233.67
2018-07-01T05:02:17.123Z,99231.45
2018-07-01T05:04:45.395Z,99230.75
2018-07-01T05:07:13.662Z,99226.98
2018-07-01T05:09:42.016Z,99230.84
2018-07-01T05:12:10.277Z,99222.55
2018-07-01T05:14:38.595Z,99228.27
2018-07-01T05:17:06.883Z,99222.09
2018-07-01T05:19:35.129Z,99225.81
2018-07-01T05:22:03.459Z,99226.48
2018-07-01T05:24:31.763Z,99232.89
2018-07-01T05:27:00.036Z,99232.44
2018-07-01T05:29:28.330Z,99233.92
2018-07-01T05:31:56.598Z,99229.64
2018-07-01T05:34:24.869Z,99231.17
2018-07-01T05:36:53.323Z,99225.95
2018-07-01T05:39:22.447Z,99228.61
2018-07-01T05:41:50.726Z,99231.94
2018-07-01T05:44:19.009Z,99227.50
2018-07-01T05:46:47.293Z,99225.45
2018-07-01T05:49:15.633Z,99227.09
2018-07-01T05:51:43.881Z,99228.81
2018-07-01T05:54:12.258Z,99226.05
2018-07-01T05:56:40.561Z,99227.80
2018-07-01T05:59:08.916Z,99235.48
2018-07-01T06:01:37.206Z,99231.83
2018-07-01T06:04:05.541Z,99234.06
2018-07-01T06:06:33.828Z,99239.78
2018-07-01T06:09:02.208Z,99235.03
2018-07-01T06:11:30.998Z,99234.64
2018-07-01T06:13:59.264Z,99235.27
2018-07-01T06:16:27.578Z,99236.19
2018-07-01T06:18:55.795Z,99236.88
2018-07-01T06:21:24.083Z,99238.55
2018-07-01T06:23:52.342Z,99238.59
2018-07-01T06:26:20.679Z,99235.83
2018-07-01T06:28:48.946Z,99245.92
2018-07-01T06:31:17.251Z,99239.75
2018-07-01T06:33:45.534Z,99240.38
2018-07-01T06:36:13.838Z,99243.43
2018-07-01T06:38:42.109Z,99240.98
2018-07-01T06:41:10.426Z,99233.27
2018-07-01T06:43:38.761Z,99239.09
2018-07-01T06:46:07.062Z,99241.23
2018-07-01T06:48:35.367Z,99249.52
2018-07-01T06:51:03.707Z,99248.50
2018-07-01T06:53:33.007Z,99245.67
2018-07-01T06:56:01.271Z,99247.55
2018-07-01T06:58:33.562Z,99240.09
2018-07-01T07:01:01.821Z,99238.80
2018-07-01T07:03:30.613Z,99241.58
2018-07-01T07:05:58.898Z,99238.55
2018-07-01T07:08:27.146Z,99239.94
2018-07-01T07:10:55.450Z,99237.20
2018-07-01T07:13:23.707Z,99234.17
2018-07-01T07:15:51.995Z,99232.48
2018-07-01T07:18:20.288Z,99232.02
2018-07-01T07:20:48.586Z,99230.80
2018-07-01T07:23:16.865Z,99230.17
2018-07-01T07:25:45.210Z,99226.46
2018-07-01T07:28:13.482Z,99230.67
2018-07-01T07:30:41.826Z,99222.11
2018-07-01T07:33:10.581Z,99222.28
2018-07-01T07:35:38.903Z,99219.95
2018-07-01T07:38:07.142Z,99212.70
2018-07-01T07:40:35.430Z,99219.09
2018-07-01T07:43:03.913Z,99217.27
2018-07-01T07:45:32.491Z,99207.30
2018-07-01T07:48:00.880Z,99214.56
2018-07-01T07:50:29.144Z,99214.89
2018-07-01T07:52:57.412Z,99215.39
2018-07-01T07:55:25.680Z,99216.24
2018-07-01T07:57:54.059Z,99217.94
2018-07-01T08:00:22.299Z,99222.82
2018-07-01T08:02:50.661Z,99221.81
2018-07-01T08:05:18.951Z,99217.08
2018-07-01T08:07:47.209Z,99213.03
2018-07-01T08:10:15.482Z,99209.82
2018-07-01T08:12:49.055Z,99219.09
2018-07-01T08:15:17.459Z,99215.36
2018-07-01T08:17:45.737Z,99213.97
2018-07-01T08:20:14.222Z,99217.04
2018-07-01T08:22:42.486Z,99217.28
2018-07-01T08:25:12.772Z,99211.55
2018-07-01T08:27:41.088Z,99213.38
2018-07-01T08:30:09.368Z,99209.83
2018-07-01T08:32:37.692Z,99206.75
2018-07-01T08:35:06.112Z,99214.17
2018-07-01T08:37:34.409Z,99208.09
2018-07-01T08:40:02.700Z,99209.96
2018-07-01T08:42:31.964Z,99209.09
2018-07-01T08:45:01.303Z,99206.39
2018-07-01T08:47:30.646Z,99211.39
2018-07-01T08:50:00.428Z,99213.52
2018-07-01T08:52:28.742Z,99207.27
2018-07-01T08:54:57.054Z,99210.75
2018-07-01T08:57:25.450Z,99206.33
2018-07-01T08:59:53.922Z,99210.64
2018-07-01T09:02:22.578Z,99210.06
2018-07-01T09:04:50.866Z,99205.75
2018-07-01T09:07:19.527Z,99193.28
2018-07-01T09:09:48.018Z,99207.86
2018-07-01T09:12:16.314Z,99205.09
2018-07-01T09:14:44.607Z,99203.81
2018-07-01T09:17:12.971Z,99205.27
2018-07-01T09:19:41.196Z,99197.22
2018-07-01T09:22:09.506Z,99198.45
2018-07-01T09:24:37.767Z,99197.34
2018-07-01T09:27:06.042Z,99188.74
2018-07-01T09:29:34.911Z,99196.70
2018-07-01T09:32:03.191Z,99194.67
2018-07-01T09:34:31.567Z,99202.16
2018-07-01T09:36:59.772Z,99209.56
2018-07-01T09:39:28.070Z,99204.16
2018-07-01T09:41:56.644Z,99198.42
2018-07-01T09:44:24.921Z,99193.50
2018-07-01T09:46:53.166Z,99188.99
2018-07-01T09:49:21.516Z,99200.87
2018-07-01T09:51:49.782Z,99200.75
2018-07-01T09:54:18.122Z,99195.42
2018-07-01T09:56:48.013Z,99195.83
2018-07-01T09:59:18.086Z,99188.91
2018-07-01T10:01:47.827Z,99185.29
2018-07-01T10:04:17.533Z,99192.52
2018-07-01T10:06:47.550Z,99177.70
2018-07-01T10:09:15.914Z,99179.88
2018-07-01T10:11:45.625Z,99169.11
2018-07-01T10:14:14.018Z,99160.14
2018-07-01T10:16:42.280Z,99167.84
2018-07-01T10:19:10.662Z,99166.38
2018-07-01T10:21:38.923Z,99163.72
2018-07-01T10:24:07.219Z,99169.22
2018-07-01T10:26:35.542Z,99175.53
2018-07-01T10:29:07.610Z,99172.09
2018-07-01T10:31:36.529Z,99171.05
2018-07-01T10:34:05.390Z,99178.99
2018-07-01T10:36:33.767Z,99171.02
2018-07-01T10:39:02.108Z,99172.93
2018-07-01T10:41:30.385Z,99174.84
2018-07-01T10:43:59.566Z,99176.66
2018-07-01T10:46:27.825Z,99167.75
2018-07-01T10:48:56.431Z,99171.73
2018-07-01T10:51:24.738Z,99170.58
2018-07-01T10:53:53.130Z,99171.82
2018-07-01T10:56:21.415Z,99158.97
2018-07-01T10:58:49.775Z,99161.02
2018-07-01T11:01:18.139Z,99168.94
2018-07-01T11:03:46.449Z,99150.96
2018-07-01T11:06:14.810Z,99156.16
2018-07-01T11:08:43.026Z,99156.63
2018-07-01T11:11:11.266Z,99140.91
2018-07-01T11:13:39.571Z,99139.05
2018-07-01T11:16:07.864Z,99135.80
2018-07-01T11:18:36.134Z,99134.58
2018-07-01T11:21:04.397Z,99137.26
2018-07-01T11:23:32.698Z,99142.25
2018-07-01T11:26:01.357Z,99136.31
2018-07-01T11:28:29.749Z,99133.97
2018-07-01T11:30:58.030Z,99135.36
2018-07-01T11:33:26.759Z,99119.36
2018-07-01T11:35:55.100Z,99120.55
2018-07-01T11:38:23.372Z,99124.48
2018-07-01T11:40:51.712Z,99121.80
2018-07-01T11:43:19.982Z,99127.13
2018-07-01T11:45:48.286Z,99124.02
2018-07-01T11:48:16.534Z,99130.70
2018-07-01T11:50:45.236Z,99120.22
2018-07-01T11:53:13.556Z,99125.02
2018-07-01T11:55:41.909Z,99114.69
2018-07-01T11:58:10.268Z,99111.59
2018-07-01T12:00:38.678Z,99116.33
2018-07-01T12:03:06.942Z,99116.12
2018-07-01T12:05:35.338Z,99106.98
2018-07-01T12:08:03.522Z,99094.37
2018-07-01T12:10:31.821Z,99097.88
2018-07-01T12:13:00.072Z,99099.91
2018-07-01T12:15:28.366Z,99101.29
2018-07-01T12:17:56.658Z,99105.69
2018-07-01T12:20:24.971Z,99097.08
2018-07-01T12:22:53.273Z,99094.41
2018-07-01T12:25:21.651Z,99091.06
2018-07-01T12:27:50.071Z,99088.47
2018-07-01T12:30:18.496Z,99095.47
2018-07-01T12:32:47.156Z,99091.91
2018-07-01T12:35:15.516Z,99082.20
2018-07-01T12:37:43.892Z,99076.75
2018-07-01T12:40:12.168Z,99080.25
2018-07-01T12:42:40.435Z,99066.06
2018-07-01T12:45:08.742Z,99078.93
2018-07-01T12:47:37.040Z,99074.64
2018-07-01T12:50:06.030Z,99071.68
2018-07-01T12:52:34.279Z,99068.73
2018-07-01T12:55:02.783Z,99063.64
2018-07-01T12:57:31.091Z,99073.06
2018-07-01T12:59:59.379Z,99062.09
2018-07-01T13:02:27.747Z,99063.87
2018-07-01T13:04:56.078Z,99058.29
2018-07-01T13:07:24.357Z,99059.47
2018-07-01T13:09:52.610Z,99061.80
2018-07-01T13:12:20.923Z,99075.84
2018-07-01T13:14:49.191Z,99065.57
2018-07-01T13:17:17.552Z,99059.69
2018-07-01T13:19:45.877Z,99061.32
2018-07-01T13:22:14.154Z,99053.19
2018-07-01T13:24:42.412Z,99052.04
2018-07-01T13:27:10.706Z,99054.47
2018-07-01T13:29:38.993Z,99054.81
2018-07-01T13:32:07.303Z,99057.76
2018-07-01T13:34:35.571Z,99057.36
2018-07-01T13:37:03.872Z,99047.55
2018-07-01T13:39:32.103Z,99054.95
2018-07-01T13:42:00.436Z,99057.58
2018-07-01T13:44:28.682Z,99045.31
2018-07-01T13:46:56.982Z,99042.81
2018-07-01T13:49:25.270Z,99049.84
2018-07-01T13:51:53.683Z,99043.83
2018-07-01T13:54:22.087Z,99042.27
2018-07-01T13:56:50.457Z,99043.69
2018-07-01T13:59:18.764Z,99047.56
2018-07-01T14:01:47.275Z,99040.92
2018-07-01T14:04:15.792Z,99032.53
2018-07-01T14:06:44.271Z,99038.85
2018-07-01T14:09:13.217Z,99034.28
2018-07-01T14:11:41.620Z,99032.61
2018-07-01T14:14:09.998Z,99027.89
2018-07-01T14:16:39.774Z,99032.55
2018-07-01T14:19:08.149Z,99028.33
2018-07-01T14:21:37.473Z,99034.68
2018-07-01T14:24:05.831Z,99020.86
2018-07-01T14:26:34.276Z,99020.50
2018-07-01T14:29:02.717Z,99014.61
2018-07-01T14:31:31.177Z,99023.67
2018-07-01T14:33:59.607Z,99011.72
2018-07-01T14:36:28.049Z,99012.19
2018-07-01T14:38:56.425Z,99013.84
2018-07-01T14:41:24.791Z,99008.63
2018-07-01T14:43:53.085Z,99001.20
2018-07-01T14:46:21.440Z,98992.55
2018-07-01T14:48:49.858Z,99004.19
2018-07-01T14:51:18.358Z,98991.09
2018-07-01T14:53:46.762Z,98990.09
2018-07-01T14:56:15.155Z,98989.79
2018-07-01T14:58:43.509Z,98989.59
2018-07-01T15:01:11.936Z,98983.33
2018-07-01T15:03:40.443Z,98995.47
2018-07-01T15:06:10.167Z,98993.24
2018-07-01T15:08:39.292Z,98995.58
2018-07-01T15:11:08.485Z,98997.20
2018-07-01T15:13:36.899Z,98989.63
2018-07-01T15:16:05.349Z,98992.95
2018-07-01T15:18:33.770Z,98995.96
2018-07-01T15:21:02.068Z,98990.42
2018-07-01T15:23:30.466Z,98987.01
2018-07-01T15:25:58.851Z,98977.94
2018-07-01T15:28:27.755Z,98982.33
2018-07-01T15:30:56.384Z,98968.97
2018-07-01T15:33:24.802Z,98969.88
2018-07-01T15:35:54.104Z,98977.19
2018-07-01T15:38:22.683Z,98964.66
2018-07-01T15:40:51.142Z,98968.36
2018-07-01T15:43:19.552Z,98976.77
2018-07-01T15:45:47.991Z,98978.28
2018-07-01T15:48:16.525Z,98973.59
2018-07-01T15:50:44.938Z,98974.81
2018-07-01T15:53:13.331Z,98974.94
2018-07-01T15:55:41.796Z,98971.91
2018-07-01T15:58:10.264Z,98965.30
2018-07-01T16:00:38.670Z,98965.66
2018-07-01T16:03:07.282Z,98966.31
2018-07-01T16:05:35.787Z,98967.55
2018-07-01T16:08:04.281Z,98967.61
2018-07-01T16:10:32.587Z,98969.08
2018-07-01T16:13:01.053Z,98959.83
2018-07-01T16:15:29.464Z,98965.92
2018-07-01T16:17:57.899Z,98960.66
2018-07-01T16:20:26.287Z,98958.45
2018-07-01T16:22:54.759Z,98952.86
2018-07-01T16:25:29.455Z,98954.92
2018-07-01T16:28:03.065Z,98950.38
2018-07-01T16:30:31.333Z,98948.63
2018-07-01T16:32:59.682Z,98948.23
2018-07-01T16:35:27.949Z,98941.87
2018-07-01T16:37:56.275Z,98941.59
2018-07-01T16:40:24.579Z,98943.54
2018-07-01T16:42:52.957Z,98950.41
2018-07-01T16:45:21.623Z,98943.45
2018-07-01T16:47:49.952Z,98942.02
2018-07-01T16:50:18.418Z,98943.02
2018-07-01T16:52:46.715Z,98937.39
2018-07-01T16:55:14.966Z,98940.50
2018-07-01T16:57:43.246Z,98940.89
2018-07-01T17:00:11.528Z,98947.27
2018-07-01T17:02:39.814Z,98954.28
2018-07-01T17:05:08.183Z,98949.23
2018-07-01T17:07:36.374Z,98952.84
2018-07-01T17:10:04.727Z,98956.05
2018-07-01T17:12:33.001Z,98949.34
2018-07-01T17:15:01.317Z,98943.48
2018-07-01T17:17:29.588Z,98945.48
2018-07-01T17:19:58.032Z,98948.36
2018-07-01T17:22:26.718Z,98946.03
2018-07-01T17:24:55.067Z,98949.21
2018-07-01T17:27:23.321Z,98951.74
2018-07-01T17:29:51.653Z,98946.45
2018-07-01T17:32:25.115Z,98943.98
2018-07-01T17:34:53.414Z,98950.77
2018-07-01T17:37:21.702Z,98948.87
2018-07-01T17:39:50.028Z,98955.86
2018-07-01T17:42:18.297Z,98954.19
2018-07-01T17:44:46.606Z,98951.44
2018-07-01T17:47:14.882Z,98949.77
2018-07-01T17:49:43.224Z,98951.11
2018-07-01T17:52:11.591Z,98952.47
2018-07-01T17:54:39.899Z,98945.22
2018-07-01T17:57:08.154Z,98953.66
2018-07-01T17:59:36.542Z,98947.11
2018-07-01T18:02:05.209Z,98950.31
2018-07-01T18:04:35.169Z,98951.42
2018-07-01T18:07:03.458Z,98948.08
2018-07-01T18:09:31.853Z,98951.95
2018-07-01T18:12:00.088Z,98948.48
2018-07-01T18:14:31.123Z,98945.86
2018-07-01T18:17:00.950Z,98949.20
2018-07-01T18:19:30.683Z,98947.55
2018-07-01T18:22:21.717Z,98953.12
2018-07-01T18:24:53.943Z,98951.22
2018-07-01T18:26:57.336Z,98951.97
2018-07-01T18:29:26.211Z,98950.40
2018-07-01T18:31:54.454Z,98947.05
2018-07-01T18:34:23.055Z,98962.63
2018-07-01T18:36:51.370Z,98962.02
2018-07-01T18:39:19.649Z,98956.02
2018-07-01T18:41:47.918Z,98961.95
2018-07-01T18:44:16.213Z,98967.97
2018-07-01T18:46:44.502Z,98958.98
2018-07-01T18:49:13.051Z,98968.86
2018-07-01T18:51:41.407Z,98969.12
2018-07-01T18:54:09.710Z,98974.38
2018-07-01T18:56:38.017Z,98972.80
2018-07-01T18:59:06.277Z,98970.79
2018-07-01T19:01:34.624Z,98975.73
2018-07-01T19:04:03.214Z,98975.23
2018-07-01T19:06:31.523Z,98973.95
2018-07-01T19:08:59.837Z,98973.95
2018-07-01T19:11:28.129Z,98973.16
2018-07-01T19:13:56.455Z,98976.07
2018-07-01T19:16:24.757Z,98981.69
2018-07-01T19:18:53.092Z,98981.22
2018-07-01T19:21:21.430Z,98991.09
2018-07-01T19:23:49.857Z,98984.78
2018-07-01T19:26:18.301Z,98987.58
2018-07-01T19:28:46.576Z,98991.48
2018-07-01T19:31:14.874Z,98992.36
2018-07-01T19:33:43.161Z,99002.87
2018-07-01T19:36:11.603Z,98999.68
2018-07-01T19:38:39.835Z,98999.12
2018-07-01T19:41:08.378Z,99004.16
2018-07-01T19:43:37.433Z,98994.53
2018-07-01T19:46:05.856Z,98999.68
2018-07-01T19:48:34.148Z,99006.27
2018-07-01T19:51:02.543Z,99011.14
2018-07-01T19:53:31.109Z,99018.08
2018-07-01T19:55:59.400Z,99027.45
2018-07-01T19:58:32.047Z,99023.00
2018-07-01T20:01:04.745Z,99027.25
2018-07-01T20:03:35.086Z,99023.22
2018-07-01T20:06:03.643Z,99027.06
2018-07-01T20:08:32.038Z,99030.34
2018-07-01T20:11:00.422Z,99032.25
2018-07-01T20:13:28.912Z,99027.22
2018-07-01T20:15:58.015Z,99033.48
2018-07-01T20:18:26.386Z,99030.82
2018-07-01T20:20:54.642Z,99034.70
2018-07-01T20:23:22.956Z,99036.67
2018-07-01T20:25:52.031Z,99036.42
2018-07-01T20:28:20.300Z,99039.23
2018-07-01T20:30:48.694Z,99041.73
2018-07-01T20:33:16.942Z,99046.16
2018-07-01T20:35:48.175Z,99049.61
2018-07-01T20:38:17.140Z,99051.95
2018-07-01T20:40:46.102Z,99046.61
2018-07-01T20:43:14.477Z,99048.52
2018-07-01T20:45:43.484Z,99050.61
2018-07-01T20:48:12.111Z,99052.01
2018-07-01T20:50:40.652Z,99051.95
2018-07-01T20:53:09.106Z,99051.42
2018-07-01T20:55:37.619Z,99051.73
2018-07-01T20:58:06.315Z,99045.34
2018-07-01T21:00:34.818Z,99048.25
2018-07-01T21:03:03.305Z,99052.30
2018-07-01T21:05:31.760Z,99052.23
2018-07-01T21:08:00.338Z,99044.58
2018-07-01T21:10:28.809Z,99053.14
2018-07-01T21:12:57.304Z,99056.45
2018-07-01T21:15:26.365Z,99058.71
2018-07-01T21:17:54.933Z,99058.71
2018-07-01T21:20:23.505Z,99060.11
2018-07-01T21:22:51.971Z,99060.52
2018-07-01T21:25:20.588Z,99061.41
2018-07-01T21:27:49.226Z,99068.22
2018-07-01T21:30:17.747Z,99067.52
2018-07-01T21:32:46.231Z,99071.04
2018-07-01T21:35:14.716Z,99075.70
2018-07-01T21:37:43.266Z,99073.22
2018-07-01T21:40:11.792Z,99069.56
2018-07-01T21:42:40.367Z,99070.98
2018-07-01T21:45:09.228Z,99075.70
2018-07-01T21:47:37.844Z,99076.19
2018-07-01T21:50:06.781Z,99074.55
2018-07-01T21:52:35.288Z,99067.05
2018-07-01T21:55:03.785Z,99078.07
2018-07-01T21:57:32.271Z,99067.39
2018-07-01T22:00:00.788Z,99073.56
2018-07-01T22:02:29.329Z,99072.66
2018-07-01T22:04:57.756Z,99075.45
2018-07-01T22:07:26.332Z,99069.53
2018-07-01T22:09:54.856Z,99073.15
2018-07-01T22:12:34.392Z,99070.98
2018-07-01T22:15:28.391Z,99071.50
2018-07-01T22:17:57.575Z,99071.33
2018-07-01T22:20:26.416Z,99078.95
2018-07-01T22:22:54.913Z,99076.73
2018-07-01T22:25:23.567Z,99075.44
2018-07-01T22:27:52.126Z,99074.25
2018-07-01T22:30:20.608Z,99071.91
2018-07-01T22:32:49.160Z,99075.48
2018-07-01T22:35:17.685Z,99070.17
2018-07-01T22:37:46.185Z,99077.03
2018-07-01T22:40:14.659Z,99076.60
2018-07-01T22:42:43.186Z,99081.80
2018-07-01T22:45:12.033Z,99079.25
2018-07-01T22:47:40.593Z,99070.23
2018-07-01T22:50:09.303Z,99065.06
2018-07-01T22:52:37.755Z,99060.98
2018-07-01T22:55:06.218Z,99066.55
2018-07-01T22:57:34.710Z,99066.88
2018-07-01T23:00:03.206Z,99067.25
2018-07-01T23:03:22.034Z,99077.05
2018-07-01T23:05:50.478Z,99084.67
2018-07-01T23:08:18.937Z,99079.95
2018-07-01T23:10:47.457Z,99084.00
2018-07-01T23:13:15.918Z,99081.75
2018-07-01T23:15:44.373Z,99086.28
2018-07-01T23:18:12.850Z,99083.28
2018-07-01T23:20:41.417Z,99082.06
2018-07-01T23:23:09.930Z,99078.82
2018-07-01T23:25:38.350Z,99070.30
2018-07-01T23:28:06.840Z,99072.95
2018-07-01T23:30:35.318Z,99071.20
2018-07-01T23:33:03.847Z,99068.92
2018-07-01T23:35:32.341Z,99068.44
2018-07-01T23:38:00.808Z,99067.38
2018-07-01T23:40:29.269Z,99069.66
2018-07-01T23:42:57.710Z,99069.30
2018-07-01T23:45:26.212Z,99068.58
2018-07-01T23:47:54.685Z,99070.23
2018-07-01T23:50:23.236Z,99075.66
2018-07-01T23:52:51.686Z,99069.27
2018-07-01T23:55:20.172Z,99070.95
2018-07-01T23:57:48.641Z,99064.26
